sensor_id;sensor_type;location;lat;lon;timestamp;pressure;altitude;pressure_sealevel;temperature;humidity
68141;BME280;54941;52.220;104.306;2023-05-23T00:00:08;95543.50;;;24.75;20.20
68141;BME280;54941;52.220;104.306;2023-05-23T00:02:34;95548.56;;;26.13;19.11
68141;BME280;54941;52.220;104.306;2023-05-23T00:05:00;95549.66;;;23.76;22.21
68141;BME280;54941;52.220;104.306;2023-05-23T00:07:27;95553.22;;;24.07;22.09
68141;BME280;54941;52.220;104.306;2023-05-23T00:09:53;95554.31;;;24.56;20.42
68141;BME280;54941;52.220;104.306;2023-05-23T00:12:21;95553.75;;;24.71;20.28
68141;BME280;54941;52.220;104.306;2023-05-23T00:14:47;95551.38;;;23.77;21.85
68141;BME280;54941;52.220;104.306;2023-05-23T00:17:13;95548.47;;;24.30;21.52
68141;BME280;54941;52.220;104.306;2023-05-23T00:19:40;95545.41;;;25.62;19.72
68141;BME280;54941;52.220;104.306;2023-05-23T00:22:06;95551.97;;;25.49;19.84
68141;BME280;54941;52.220;104.306;2023-05-23T00:24:32;95541.16;;;26.80;18.35
68141;BME280;54941;52.220;104.306;2023-05-23T00:26:58;95543.94;;;26.43;19.01
68141;BME280;54941;52.220;104.306;2023-05-23T00:29:26;95538.59;;;26.79;18.75
68141;BME280;54941;52.220;104.306;2023-05-23T00:31:52;95534.75;;;26.99;18.27
68141;BME280;54941;52.220;104.306;2023-05-23T00:34:19;95545.97;;;24.97;20.80
68141;BME280;54941;52.220;104.306;2023-05-23T00:36:45;95544.72;;;25.21;19.89
68141;BME280;54941;52.220;104.306;2023-05-23T00:39:11;95548.91;;;24.25;20.96
68141;BME280;54941;52.220;104.306;2023-05-23T00:41:38;95538.25;;;26.36;19.08
68141;BME280;54941;52.220;104.306;2023-05-23T00:44:04;95544.97;;;23.99;21.52
68141;BME280;54941;52.220;104.306;2023-05-23T00:46:32;95551.63;;;21.56;24.14
68141;BME280;54941;52.220;104.306;2023-05-23T00:48:58;95549.44;;;22.51;23.64
68141;BME280;54941;52.220;104.306;2023-05-23T00:51:24;95539.44;;;24.40;21.34
68141;BME280;54941;52.220;104.306;2023-05-23T00:53:51;95532.69;;;25.91;19.99
68141;BME280;54941;52.220;104.306;2023-05-23T00:56:17;95541.13;;;27.25;18.77
68141;BME280;54941;52.220;104.306;2023-05-23T00:58:44;95532.03;;;26.54;19.64
68141;BME280;54941;52.220;104.306;2023-05-23T01:01:10;95530.03;;;27.01;18.56
68141;BME280;54941;52.220;104.306;2023-05-23T01:03:38;95544.56;;;25.32;20.37
68141;BME280;54941;52.220;104.306;2023-05-23T01:06:05;95547.47;;;23.49;22.53
68141;BME280;54941;52.220;104.306;2023-05-23T01:08:31;95542.13;;;22.96;23.61
68141;BME280;54941;52.220;104.306;2023-05-23T01:11:02;95544.84;;;22.08;24.10
68141;BME280;54941;52.220;104.306;2023-05-23T01:13:41;95552.09;;;21.15;25.42
68141;BME280;54941;52.220;104.306;2023-05-23T01:16:14;95540.56;;;21.25;25.23
68141;BME280;54941;52.220;104.306;2023-05-23T01:18:47;95538.31;;;21.66;24.55
68141;BME280;54941;52.220;104.306;2023-05-23T01:21:17;95538.94;;;23.44;23.31
68141;BME280;54941;52.220;104.306;2023-05-23T01:24:11;95546.88;;;25.27;20.58
68141;BME280;54941;52.220;104.306;2023-05-23T01:27:00;95533.00;;;25.69;20.29
68141;BME280;54941;52.220;104.306;2023-05-23T01:29:31;95531.84;;;27.10;19.33
68141;BME280;54941;52.220;104.306;2023-05-23T01:32:00;95535.56;;;25.80;20.34
68141;BME280;54941;52.220;104.306;2023-05-23T01:34:28;95524.22;;;26.04;20.12
68141;BME280;54941;52.220;104.306;2023-05-23T01:36:55;95523.84;;;27.26;19.17
68141;BME280;54941;52.220;104.306;2023-05-23T01:39:22;95529.13;;;26.83;19.13
68141;BME280;54941;52.220;104.306;2023-05-23T01:41:49;95524.13;;;26.60;20.31
68141;BME280;54941;52.220;104.306;2023-05-23T01:44:16;95518.97;;;26.02;20.34
68141;BME280;54941;52.220;104.306;2023-05-23T01:46:45;95515.84;;;26.89;19.21
68141;BME280;54941;52.220;104.306;2023-05-23T01:49:13;95515.44;;;26.84;19.69
68141;BME280;54941;52.220;104.306;2023-05-23T01:51:41;95515.16;;;26.32;20.43
68141;BME280;54941;52.220;104.306;2023-05-23T01:54:08;95517.72;;;27.24;19.29
68141;BME280;54941;52.220;104.306;2023-05-23T01:56:34;95514.16;;;27.85;18.62
68141;BME280;54941;52.220;104.306;2023-05-23T01:59:01;95510.16;;;26.00;20.40
68141;BME280;54941;52.220;104.306;2023-05-23T02:01:28;95512.72;;;26.66;19.94
68141;BME280;54941;52.220;104.306;2023-05-23T02:03:56;95509.41;;;28.39;18.19
68141;BME280;54941;52.220;104.306;2023-05-23T02:06:22;95500.38;;;28.05;18.34
68141;BME280;54941;52.220;104.306;2023-05-23T02:08:48;95515.06;;;25.68;19.93
68141;BME280;54941;52.220;104.306;2023-05-23T02:11:14;95514.16;;;26.61;19.49
68141;BME280;54941;52.220;104.306;2023-05-23T02:13:41;95514.00;;;26.62;19.33
68141;BME280;54941;52.220;104.306;2023-05-23T02:16:07;95502.41;;;28.03;17.95
68141;BME280;54941;52.220;104.306;2023-05-23T02:18:34;95510.63;;;26.96;19.11
68141;BME280;54941;52.220;104.306;2023-05-23T02:21:02;95500.13;;;26.75;19.53
68141;BME280;54941;52.220;104.306;2023-05-23T02:23:28;95496.47;;;27.20;19.31
68141;BME280;54941;52.220;104.306;2023-05-23T02:25:55;95501.34;;;26.26;20.27
68141;BME280;54941;52.220;104.306;2023-05-23T02:28:21;95493.75;;;27.55;18.54
68141;BME280;54941;52.220;104.306;2023-05-23T02:30:47;95491.50;;;27.51;18.92
68141;BME280;54941;52.220;104.306;2023-05-23T02:33:14;95487.28;;;27.74;18.30
68141;BME280;54941;52.220;104.306;2023-05-23T02:35:40;95498.69;;;27.60;18.55
68141;BME280;54941;52.220;104.306;2023-05-23T02:38:08;95503.00;;;25.52;20.63
68141;BME280;54941;52.220;104.306;2023-05-23T02:40:34;95497.59;;;27.97;18.51
68141;BME280;54941;52.220;104.306;2023-05-23T02:43:00;95496.97;;;28.03;18.14
68141;BME280;54941;52.220;104.306;2023-05-23T02:45:26;95499.63;;;27.95;18.32
68141;BME280;54941;52.220;104.306;2023-05-23T02:47:53;95494.63;;;27.20;19.35
68141;BME280;54941;52.220;104.306;2023-05-23T02:50:19;95498.63;;;27.52;18.34
68141;BME280;54941;52.220;104.306;2023-05-23T02:52:45;95490.13;;;27.90;18.08
68141;BME280;54941;52.220;104.306;2023-05-23T02:55:13;95495.59;;;28.33;17.40
68141;BME280;54941;52.220;104.306;2023-05-23T02:57:39;95494.69;;;26.75;18.78
68141;BME280;54941;52.220;104.306;2023-05-23T03:00:07;95495.59;;;26.66;18.63
68141;BME280;54941;52.220;104.306;2023-05-23T03:02:33;95492.31;;;26.62;18.85
68141;BME280;54941;52.220;104.306;2023-05-23T03:05:00;95494.31;;;26.88;18.49
68141;BME280;54941;52.220;104.306;2023-05-23T03:07:26;95487.41;;;27.29;18.91
68141;BME280;54941;52.220;104.306;2023-05-23T03:09:52;95491.38;;;27.78;18.10
68141;BME280;54941;52.220;104.306;2023-05-23T03:12:20;95490.38;;;27.36;18.33
68141;BME280;54941;52.220;104.306;2023-05-23T03:14:46;95490.03;;;25.46;20.00
68141;BME280;54941;52.220;104.306;2023-05-23T03:17:13;95475.88;;;25.25;19.70
68141;BME280;54941;52.220;104.306;2023-05-23T03:19:39;95492.91;;;24.58;21.39
68141;BME280;54941;52.220;104.306;2023-05-23T03:22:05;95483.66;;;24.60;20.91
68141;BME280;54941;52.220;104.306;2023-05-23T03:24:32;95471.16;;;24.69;20.94
68141;BME280;54941;52.220;104.306;2023-05-23T03:26:58;95477.22;;;25.58;19.31
68141;BME280;54941;52.220;104.306;2023-05-23T03:29:26;95471.16;;;26.75;18.52
68141;BME280;54941;52.220;104.306;2023-05-23T03:31:52;95468.72;;;25.43;20.29
68141;BME280;54941;52.220;104.306;2023-05-23T03:34:18;95465.69;;;26.03;19.36
68141;BME280;54941;52.220;104.306;2023-05-23T03:36:45;95461.19;;;26.49;18.49
68141;BME280;54941;52.220;104.306;2023-05-23T03:39:12;95466.72;;;26.92;18.66
68141;BME280;54941;52.220;104.306;2023-05-23T03:41:38;95461.41;;;27.18;18.57
68141;BME280;54941;52.220;104.306;2023-05-23T03:44:05;95453.59;;;25.60;20.16
68141;BME280;54941;52.220;104.306;2023-05-23T03:46:33;95445.66;;;25.39;20.13
68141;BME280;54941;52.220;104.306;2023-05-23T03:48:59;95446.28;;;25.80;20.00
68141;BME280;54941;52.220;104.306;2023-05-23T03:51:25;95440.16;;;25.78;20.14
68141;BME280;54941;52.220;104.306;2023-05-23T03:53:52;95443.22;;;25.46;20.84
68141;BME280;54941;52.220;104.306;2023-05-23T03:56:18;95444.97;;;25.37;21.14
68141;BME280;54941;52.220;104.306;2023-05-23T03:58:44;95437.06;;;25.73;20.24
68141;BME280;54941;52.220;104.306;2023-05-23T04:01:10;95439.97;;;25.42;20.61
68141;BME280;54941;52.220;104.306;2023-05-23T04:03:38;95432.19;;;24.81;20.86
68141;BME280;54941;52.220;104.306;2023-05-23T04:06:05;95440.81;;;22.73;23.62
68141;BME280;54941;52.220;104.306;2023-05-23T04:08:31;95434.47;;;23.97;22.66
68141;BME280;54941;52.220;104.306;2023-05-23T04:10:57;95439.31;;;23.42;22.96
68141;BME280;54941;52.220;104.306;2023-05-23T04:13:24;95427.78;;;24.51;22.20
68141;BME280;54941;52.220;104.306;2023-05-23T04:15:50;95418.72;;;26.22;20.64
68141;BME280;54941;52.220;104.306;2023-05-23T04:18:16;95414.66;;;26.08;21.35
68141;BME280;54941;52.220;104.306;2023-05-23T04:20:45;95411.81;;;26.09;20.77
68141;BME280;54941;52.220;104.306;2023-05-23T04:23:11;95402.78;;;24.78;21.31
68141;BME280;54941;52.220;104.306;2023-05-23T04:25:37;95416.72;;;22.39;23.70
68141;BME280;54941;52.220;104.306;2023-05-23T04:28:03;95415.97;;;22.48;23.02
68141;BME280;54941;52.220;104.306;2023-05-23T04:30:30;95407.53;;;24.26;21.49
68141;BME280;54941;52.220;104.306;2023-05-23T04:32:56;95390.66;;;24.92;20.91
68141;BME280;54941;52.220;104.306;2023-05-23T04:35:23;95398.81;;;23.94;21.98
68141;BME280;54941;52.220;104.306;2023-05-23T04:37:50;95412.41;;;21.93;24.57
68141;BME280;54941;52.220;104.306;2023-05-23T04:40:17;95410.03;;;21.34;25.68
68141;BME280;54941;52.220;104.306;2023-05-23T04:42:43;95414.53;;;20.41;26.54
68141;BME280;54941;52.220;104.306;2023-05-23T04:45:10;95418.25;;;20.86;26.12
68141;BME280;54941;52.220;104.306;2023-05-23T04:47:36;95418.47;;;20.00;27.14
68141;BME280;54941;52.220;104.306;2023-05-23T04:50:03;95412.78;;;20.05;27.28
68141;BME280;54941;52.220;104.306;2023-05-23T04:52:31;95419.28;;;20.37;27.16
68141;BME280;54941;52.220;104.306;2023-05-23T04:54:58;95401.94;;;21.68;25.34
68141;BME280;54941;52.220;104.306;2023-05-23T04:57:25;95398.19;;;22.25;24.88
68141;BME280;54941;52.220;104.306;2023-05-23T04:59:51;95386.25;;;22.91;24.41
68141;BME280;54941;52.220;104.306;2023-05-23T05:02:18;95394.69;;;22.13;25.25
68141;BME280;54941;52.220;104.306;2023-05-23T05:04:44;95387.78;;;21.77;25.41
68141;BME280;54941;52.220;104.306;2023-05-23T05:07:10;95393.00;;;21.90;25.22
68141;BME280;54941;52.220;104.306;2023-05-23T05:09:37;95389.38;;;21.46;25.72
68141;BME280;54941;52.220;104.306;2023-05-23T05:12:05;95389.50;;;21.55;25.26
68141;BME280;54941;52.220;104.306;2023-05-23T05:14:31;95386.16;;;20.96;25.34
68141;BME280;54941;52.220;104.306;2023-05-23T05:16:58;95382.06;;;21.48;24.36
68141;BME280;54941;52.220;104.306;2023-05-23T05:19:24;95380.44;;;21.79;24.31
68141;BME280;54941;52.220;104.306;2023-05-23T05:21:51;95367.00;;;22.22;24.27
68141;BME280;54941;52.220;104.306;2023-05-23T05:24:17;95363.47;;;23.26;23.08
68141;BME280;54941;52.220;104.306;2023-05-23T05:26:44;95356.28;;;23.06;23.08
68141;BME280;54941;52.220;104.306;2023-05-23T05:29:12;95367.78;;;22.34;23.95
68141;BME280;54941;52.220;104.306;2023-05-23T05:31:38;95353.59;;;22.64;23.65
68141;BME280;54941;52.220;104.306;2023-05-23T05:34:04;95334.94;;;22.51;23.78
68141;BME280;54941;52.220;104.306;2023-05-23T05:36:32;95339.09;;;21.91;23.68
68141;BME280;54941;52.220;104.306;2023-05-23T05:38:59;95343.56;;;21.25;25.10
68141;BME280;54941;52.220;104.306;2023-05-23T05:41:25;95348.72;;;20.48;25.23
68141;BME280;54941;52.220;104.306;2023-05-23T05:43:51;95340.38;;;20.86;25.15
68141;BME280;54941;52.220;104.306;2023-05-23T05:46:19;95331.34;;;21.66;24.57
68141;BME280;54941;52.220;104.306;2023-05-23T05:48:46;95335.06;;;21.85;24.56
68141;BME280;54941;52.220;104.306;2023-05-23T05:51:12;95336.94;;;21.18;24.95
68141;BME280;54941;52.220;104.306;2023-05-23T05:53:38;95336.72;;;21.10;25.10
68141;BME280;54941;52.220;104.306;2023-05-23T05:56:05;95347.97;;;21.26;25.26
68141;BME280;54941;52.220;104.306;2023-05-23T05:58:31;95340.16;;;21.57;24.06
68141;BME280;54941;52.220;104.306;2023-05-23T06:00:57;95332.97;;;21.89;24.35
68141;BME280;54941;52.220;104.306;2023-05-23T06:03:25;95330.84;;;22.78;23.25
68141;BME280;54941;52.220;104.306;2023-05-23T06:05:51;95325.63;;;22.34;23.71
68141;BME280;54941;52.220;104.306;2023-05-23T06:08:18;95340.34;;;22.19;23.88
68141;BME280;54941;52.220;104.306;2023-05-23T06:10:44;95340.63;;;21.17;25.29
68141;BME280;54941;52.220;104.306;2023-05-23T06:13:10;95347.22;;;20.90;26.10
68141;BME280;54941;52.220;104.306;2023-05-23T06:15:37;95343.25;;;20.26;27.44
68141;BME280;54941;52.220;104.306;2023-05-23T06:18:03;95350.47;;;20.36;27.49
68141;BME280;54941;52.220;104.306;2023-05-23T06:20:31;95349.63;;;20.36;27.72
68141;BME280;54941;52.220;104.306;2023-05-23T06:22:57;95339.53;;;20.04;26.76
68141;BME280;54941;52.220;104.306;2023-05-23T06:25:24;95331.81;;;20.70;26.32
68141;BME280;54941;52.220;104.306;2023-05-23T06:27:50;95325.41;;;21.83;26.02
68141;BME280;54941;52.220;104.306;2023-05-23T06:30:17;95317.69;;;21.90;25.55
68141;BME280;54941;52.220;104.306;2023-05-23T06:32:43;95321.16;;;22.24;24.73
68141;BME280;54941;52.220;104.306;2023-05-23T06:35:09;95324.13;;;21.98;24.97
68141;BME280;54941;52.220;104.306;2023-05-23T06:37:37;95317.56;;;21.48;26.10
68141;BME280;54941;52.220;104.306;2023-05-23T06:40:04;95310.09;;;21.18;25.91
68141;BME280;54941;52.220;104.306;2023-05-23T06:42:31;95304.63;;;21.08;26.09
68141;BME280;54941;52.220;104.306;2023-05-23T06:44:58;95308.53;;;21.38;25.69
68141;BME280;54941;52.220;104.306;2023-05-23T06:47:24;95304.25;;;20.79;26.50
68141;BME280;54941;52.220;104.306;2023-05-23T06:49:50;95295.69;;;21.41;26.54
68141;BME280;54941;52.220;104.306;2023-05-23T06:52:16;95306.22;;;21.44;26.76
68141;BME280;54941;52.220;104.306;2023-05-23T06:54:44;95299.22;;;22.28;26.05
68141;BME280;54941;52.220;104.306;2023-05-23T06:57:11;95300.84;;;22.82;25.87
68141;BME280;54941;52.220;104.306;2023-05-23T06:59:37;95299.41;;;22.04;25.14
68141;BME280;54941;52.220;104.306;2023-05-23T07:02:03;95317.34;;;21.83;25.23
68141;BME280;54941;52.220;104.306;2023-05-23T07:04:30;95309.25;;;21.29;25.71
68141;BME280;54941;52.220;104.306;2023-05-23T07:06:56;95316.09;;;21.44;26.20
68141;BME280;54941;52.220;104.306;2023-05-23T07:09:22;95321.69;;;21.18;26.20
68141;BME280;54941;52.220;104.306;2023-05-23T07:11:50;95308.28;;;21.07;27.11
68141;BME280;54941;52.220;104.306;2023-05-23T07:14:17;95310.41;;;21.69;26.17
68141;BME280;54941;52.220;104.306;2023-05-23T07:16:43;95308.59;;;21.70;25.90
68141;BME280;54941;52.220;104.306;2023-05-23T07:19:09;95302.03;;;21.51;26.06
68141;BME280;54941;52.220;104.306;2023-05-23T07:21:36;95309.34;;;21.49;26.24
68141;BME280;54941;52.220;104.306;2023-05-23T07:24:02;95304.50;;;20.98;26.49
68141;BME280;54941;52.220;104.306;2023-05-23T07:26:28;95306.19;;;20.77;26.73
68141;BME280;54941;52.220;104.306;2023-05-23T07:28:56;95309.00;;;20.76;27.93
68141;BME280;54941;52.220;104.306;2023-05-23T07:31:23;95308.31;;;20.38;28.82
68141;BME280;54941;52.220;104.306;2023-05-23T07:33:49;95297.34;;;20.06;28.97
68141;BME280;54941;52.220;104.306;2023-05-23T07:36:15;95298.09;;;20.44;28.51
68141;BME280;54941;52.220;104.306;2023-05-23T07:38:42;95300.34;;;20.37;28.35
68141;BME280;54941;52.220;104.306;2023-05-23T07:41:08;95294.34;;;21.13;27.71
68141;BME280;54941;52.220;104.306;2023-05-23T07:43:35;95285.44;;;20.68;27.59
68141;BME280;54941;52.220;104.306;2023-05-23T07:46:05;95295.22;;;20.34;28.12
68141;BME280;54941;52.220;104.306;2023-05-23T07:48:32;95297.06;;;20.33;28.56
68141;BME280;54941;52.220;104.306;2023-05-23T07:50:58;95303.78;;;20.28;29.75
68141;BME280;54941;52.220;104.306;2023-05-23T07:53:25;95325.22;;;19.19;32.63
68141;BME280;54941;52.220;104.306;2023-05-23T07:55:51;95324.41;;;18.55;34.76
68141;BME280;54941;52.220;104.306;2023-05-23T07:58:17;95317.22;;;19.07;34.11
68141;BME280;54941;52.220;104.306;2023-05-23T08:00:44;95312.28;;;19.13;34.14
68141;BME280;54941;52.220;104.306;2023-05-23T08:03:12;95317.97;;;18.96;33.33
68141;BME280;54941;52.220;104.306;2023-05-23T08:05:38;95315.41;;;18.31;34.30
68141;BME280;54941;52.220;104.306;2023-05-23T08:08:05;95324.53;;;18.41;33.61
68141;BME280;54941;52.220;104.306;2023-05-23T08:10:32;95318.38;;;18.26;33.93
68141;BME280;54941;52.220;104.306;2023-05-23T08:12:59;95318.94;;;18.31;34.39
68141;BME280;54941;52.220;104.306;2023-05-23T08:15:25;95319.69;;;18.33;34.14
68141;BME280;54941;52.220;104.306;2023-05-23T08:17:52;95320.84;;;18.17;34.95
68141;BME280;54941;52.220;104.306;2023-05-23T08:20:20;95317.53;;;18.38;34.14
68141;BME280;54941;52.220;104.306;2023-05-23T08:22:46;95324.81;;;18.24;34.96
68141;BME280;54941;52.220;104.306;2023-05-23T08:25:13;95323.59;;;18.80;34.01
68141;BME280;54941;52.220;104.306;2023-05-23T08:27:39;95324.84;;;18.75;34.13
68141;BME280;54941;52.220;104.306;2023-05-23T08:30:07;95310.28;;;19.41;29.86
68141;BME280;54941;52.220;104.306;2023-05-23T08:32:34;95314.59;;;19.67;29.47
68141;BME280;54941;52.220;104.306;2023-05-23T08:35:01;95309.81;;;19.60;29.63
68141;BME280;54941;52.220;104.306;2023-05-23T08:37:32;95309.81;;;19.84;29.93
68141;BME280;54941;52.220;104.306;2023-05-23T08:40:00;95304.84;;;19.30;30.51
68141;BME280;54941;52.220;104.306;2023-05-23T08:42:26;95306.69;;;19.53;30.80
68141;BME280;54941;52.220;104.306;2023-05-23T08:44:53;95309.69;;;19.61;30.66
68141;BME280;54941;52.220;104.306;2023-05-23T08:47:19;95309.88;;;19.95;30.00
68141;BME280;54941;52.220;104.306;2023-05-23T08:49:48;95308.22;;;19.44;31.14
68141;BME280;54941;52.220;104.306;2023-05-23T08:52:15;95312.25;;;19.63;31.26
68141;BME280;54941;52.220;104.306;2023-05-23T08:54:45;95308.56;;;19.76;31.48
68141;BME280;54941;52.220;104.306;2023-05-23T08:57:12;95298.06;;;19.13;32.75
68141;BME280;54941;52.220;104.306;2023-05-23T08:59:39;95304.53;;;19.21;32.95
68141;BME280;54941;52.220;104.306;2023-05-23T09:02:09;95298.97;;;19.24;32.97
68141;BME280;54941;52.220;104.306;2023-05-23T09:04:37;95295.34;;;19.26;32.18
68141;BME280;54941;52.220;104.306;2023-05-23T09:07:03;95304.16;;;19.15;32.03
68141;BME280;54941;52.220;104.306;2023-05-23T09:09:30;95307.09;;;18.99;32.42
68141;BME280;54941;52.220;104.306;2023-05-23T09:11:58;95301.44;;;19.51;31.84
68141;BME280;54941;52.220;104.306;2023-05-23T09:14:24;95290.38;;;19.93;31.29
68141;BME280;54941;52.220;104.306;2023-05-23T09:16:51;95284.78;;;19.72;31.58
68141;BME280;54941;52.220;104.306;2023-05-23T09:19:20;95298.38;;;19.45;31.86
68141;BME280;54941;52.220;104.306;2023-05-23T09:21:47;95290.09;;;19.85;31.50
68141;BME280;54941;52.220;104.306;2023-05-23T09:24:14;95293.00;;;19.81;31.55
68141;BME280;54941;52.220;104.306;2023-05-23T09:26:41;95288.81;;;19.77;30.89
68141;BME280;54941;52.220;104.306;2023-05-23T09:29:09;95287.81;;;19.91;30.34
68141;BME280;54941;52.220;104.306;2023-05-23T09:31:35;95287.47;;;19.72;30.70
68141;BME280;54941;52.220;104.306;2023-05-23T09:34:02;95293.47;;;19.39;30.47
68141;BME280;54941;52.220;104.306;2023-05-23T09:36:30;95289.97;;;19.26;30.72
68141;BME280;54941;52.220;104.306;2023-05-23T09:38:56;95292.16;;;19.57;29.56
68141;BME280;54941;52.220;104.306;2023-05-23T09:41:29;95282.69;;;19.28;30.35
68141;BME280;54941;52.220;104.306;2023-05-23T09:43:55;95285.94;;;19.07;31.15
68141;BME280;54941;52.220;104.306;2023-05-23T09:46:27;95285.44;;;19.02;30.51
68141;BME280;54941;52.220;104.306;2023-05-23T09:48:54;95274.84;;;19.01;30.45
68141;BME280;54941;52.220;104.306;2023-05-23T09:51:21;95283.66;;;19.27;30.05
68141;BME280;54941;52.220;104.306;2023-05-23T09:53:49;95272.13;;;19.13;29.72
68141;BME280;54941;52.220;104.306;2023-05-23T09:56:22;95263.81;;;18.92;29.71
68141;BME280;54941;52.220;104.306;2023-05-23T09:58:50;95267.53;;;18.66;30.05
68141;BME280;54941;52.220;104.306;2023-05-23T10:01:19;95274.78;;;18.77;30.03
68141;BME280;54941;52.220;104.306;2023-05-23T10:03:48;95281.53;;;18.70;29.75
68141;BME280;54941;52.220;104.306;2023-05-23T10:06:19;95275.50;;;18.91;29.83
68141;BME280;54941;52.220;104.306;2023-05-23T10:08:51;95277.78;;;18.72;30.06
68141;BME280;54941;52.220;104.306;2023-05-23T10:14:15;95269.09;;;18.81;30.57
68141;BME280;54941;52.220;104.306;2023-05-23T10:16:52;95258.94;;;18.74;30.24
68141;BME280;54941;52.220;104.306;2023-05-23T10:19:24;95267.72;;;18.76;29.75
68141;BME280;54941;52.220;104.306;2023-05-23T10:21:56;95272.53;;;18.45;29.71
68141;BME280;54941;52.220;104.306;2023-05-23T10:24:24;95265.97;;;18.62;29.42
68141;BME280;54941;52.220;104.306;2023-05-23T10:26:52;95266.81;;;18.62;29.42
68141;BME280;54941;52.220;104.306;2023-05-23T10:29:19;95269.75;;;18.47;29.09
68141;BME280;54941;52.220;104.306;2023-05-23T10:31:46;95267.91;;;18.34;29.61
68141;BME280;54941;52.220;104.306;2023-05-23T10:34:18;95275.19;;;18.58;29.66
68141;BME280;54941;52.220;104.306;2023-05-23T10:36:55;95270.59;;;18.60;29.67
68141;BME280;54941;52.220;104.306;2023-05-23T10:39:34;95273.25;;;18.47;28.88
68141;BME280;54941;52.220;104.306;2023-05-23T10:42:06;95265.69;;;18.41;27.91
68141;BME280;54941;52.220;104.306;2023-05-23T10:44:35;95268.78;;;18.35;26.88
68141;BME280;54941;52.220;104.306;2023-05-23T10:47:03;95269.00;;;18.19;26.67
68141;BME280;54941;52.220;104.306;2023-05-23T10:49:40;95263.72;;;18.05;26.08
68141;BME280;54941;52.220;104.306;2023-05-23T10:52:10;95269.72;;;18.08;26.09
68141;BME280;54941;52.220;104.306;2023-05-23T10:54:41;95265.75;;;18.14;25.95
68141;BME280;54941;52.220;104.306;2023-05-23T10:57:09;95258.59;;;18.15;26.02
68141;BME280;54941;52.220;104.306;2023-05-23T10:59:37;95254.78;;;18.19;26.07
68141;BME280;54941;52.220;104.306;2023-05-23T11:02:08;95249.94;;;18.24;26.05
68141;BME280;54941;52.220;104.306;2023-05-23T11:04:37;95247.50;;;18.21;26.23
68141;BME280;54941;52.220;104.306;2023-05-23T11:07:27;95252.50;;;18.25;26.60
68141;BME280;54941;52.220;104.306;2023-05-23T11:10:07;95252.72;;;18.10;26.62
68141;BME280;54941;52.220;104.306;2023-05-23T11:12:38;95257.09;;;17.98;26.75
68141;BME280;54941;52.220;104.306;2023-05-23T11:15:19;95256.53;;;17.93;27.27
68141;BME280;54941;52.220;104.306;2023-05-23T11:17:50;95250.34;;;17.92;27.18
68141;BME280;54941;52.220;104.306;2023-05-23T11:20:18;95250.88;;;17.85;27.51
68141;BME280;54941;52.220;104.306;2023-05-23T11:22:52;95270.56;;;17.84;27.54
68141;BME280;54941;52.220;104.306;2023-05-23T11:25:19;95262.19;;;17.75;27.73
68141;BME280;54941;52.220;104.306;2023-05-23T11:27:45;95266.25;;;17.81;27.67
68141;BME280;54941;52.220;104.306;2023-05-23T11:30:13;95263.16;;;17.74;28.09
68141;BME280;54941;52.220;104.306;2023-05-23T11:32:40;95261.34;;;17.75;27.61
68141;BME280;54941;52.220;104.306;2023-05-23T11:35:09;95254.53;;;17.84;27.29
68141;BME280;54941;52.220;104.306;2023-05-23T11:37:37;95266.13;;;17.83;27.29
68141;BME280;54941;52.220;104.306;2023-05-23T11:40:27;95276.94;;;17.81;27.52
68141;BME280;54941;52.220;104.306;2023-05-23T11:42:54;95266.81;;;17.86;27.49
68141;BME280;54941;52.220;104.306;2023-05-23T11:45:22;95280.78;;;17.77;27.35
68141;BME280;54941;52.220;104.306;2023-05-23T11:47:49;95280.78;;;17.77;27.98
68141;BME280;54941;52.220;104.306;2023-05-23T11:50:16;95273.84;;;17.74;27.98
68141;BME280;54941;52.220;104.306;2023-05-23T11:52:43;95292.09;;;17.54;28.68
68141;BME280;54941;52.220;104.306;2023-05-23T11:55:09;95289.53;;;17.52;28.76
68141;BME280;54941;52.220;104.306;2023-05-23T11:57:39;95277.38;;;17.34;29.10
68141;BME280;54941;52.220;104.306;2023-05-23T12:00:06;95295.00;;;17.09;29.99
68141;BME280;54941;52.220;104.306;2023-05-23T12:02:38;95287.47;;;17.02;30.30
68141;BME280;54941;52.220;104.306;2023-05-23T12:05:10;95290.56;;;16.96;30.82
68141;BME280;54941;52.220;104.306;2023-05-23T12:07:39;95302.22;;;16.80;31.43
68141;BME280;54941;52.220;104.306;2023-05-23T12:10:07;95307.44;;;16.82;31.56
68141;BME280;54941;52.220;104.306;2023-05-23T12:12:38;95309.63;;;16.75;31.47
68141;BME280;54941;52.220;104.306;2023-05-23T12:15:06;95304.28;;;16.75;31.44
68141;BME280;54941;52.220;104.306;2023-05-23T12:17:33;95303.13;;;16.65;31.50
68141;BME280;54941;52.220;104.306;2023-05-23T12:20:02;95304.16;;;16.62;31.69
68141;BME280;54941;52.220;104.306;2023-05-23T12:22:31;95306.84;;;16.62;32.11
68141;BME280;54941;52.220;104.306;2023-05-23T12:24:59;95307.34;;;16.69;31.93
68141;BME280;54941;52.220;104.306;2023-05-23T12:27:28;95311.22;;;16.63;32.08
68141;BME280;54941;52.220;104.306;2023-05-23T12:30:06;95317.88;;;16.42;32.85
68141;BME280;54941;52.220;104.306;2023-05-23T12:32:34;95323.59;;;16.36;33.04
68141;BME280;54941;52.220;104.306;2023-05-23T12:35:00;95323.19;;;16.42;33.13
68141;BME280;54941;52.220;104.306;2023-05-23T12:37:26;95318.06;;;16.25;33.71
68141;BME280;54941;52.220;104.306;2023-05-23T12:39:53;95318.16;;;16.23;33.84
68141;BME280;54941;52.220;104.306;2023-05-23T12:42:19;95322.78;;;16.20;33.86
68141;BME280;54941;52.220;104.306;2023-05-23T12:44:50;95331.41;;;16.09;34.15